createdAt,value
2023-07-27T00:01:14.412Z,48.15
2023-07-27T00:03:43.458Z,48.39
2023-07-27T00:06:13.417Z,48.51
2023-07-27T00:08:42.341Z,48.53
2023-07-27T00:11:11.206Z,48.90
2023-07-27T00:13:42.576Z,48.60
2023-07-27T00:16:15.621Z,48.67
2023-07-27T00:18:44.575Z,48.98
2023-07-27T00:21:16.786Z,48.94
2023-07-27T00:23:46.752Z,48.92
2023-07-27T00:26:15.982Z,48.98
2023-07-27T00:28:46.327Z,49.00
2023-07-27T00:31:16.304Z,48.97
2023-07-27T00:33:46.230Z,49.20
2023-07-27T00:36:16.533Z,49.25
2023-07-27T00:38:48.240Z,49.25
2023-07-27T00:41:18.280Z,49.36
2023-07-27T00:43:48.768Z,49.50
2023-07-27T00:46:19.022Z,49.39
2023-07-27T00:48:48.169Z,49.37
2023-07-27T00:51:18.154Z,49.44
2023-07-27T00:53:47.611Z,49.65
2023-07-27T00:56:17.361Z,49.62
2023-07-27T00:58:48.932Z,49.42
2023-07-27T01:01:19.573Z,49.34
2023-07-27T01:03:49.946Z,49.23
2023-07-27T01:06:20.105Z,49.34
2023-07-27T01:08:50.236Z,49.47
2023-07-27T01:11:26.806Z,49.71
2023-07-27T01:14:07.244Z,49.78
2023-07-27T01:16:42.034Z,49.92
2023-07-27T01:19:28.795Z,49.80
2023-07-27T01:22:18.604Z,50.18
2023-07-27T01:25:18.721Z,50.45
2023-07-27T01:27:58.890Z,50.56
2023-07-27T01:30:59.348Z,50.69
2023-07-27T01:33:40.330Z,50.48
2023-07-27T01:36:13.609Z,50.77
2023-07-27T01:38:52.852Z,50.77
2023-07-27T01:41:25.045Z,51.02
2023-07-27T01:43:59.108Z,51.12
2023-07-27T01:46:33.424Z,51.38
2023-07-27T01:49:05.373Z,51.37
2023-07-27T01:51:36.220Z,51.47
2023-07-27T01:54:11.048Z,51.50
2023-07-27T01:56:40.297Z,52.07
2023-07-27T01:59:10.258Z,52.38
2023-07-27T02:01:44.759Z,52.31
2023-07-27T02:04:16.600Z,52.42
2023-07-27T02:06:52.084Z,52.23
2023-07-27T02:09:22.429Z,52.39
2023-07-27T02:11:58.442Z,52.25
2023-07-27T02:14:33.120Z,52.63
2023-07-27T02:17:14.794Z,52.62
2023-07-27T02:19:46.911Z,52.92
2023-07-27T02:22:18.242Z,53.01
2023-07-27T02:24:47.598Z,53.25
2023-07-27T02:27:17.798Z,53.32
2023-07-27T02:29:49.048Z,53.24
2023-07-27T02:32:20.577Z,53.25
2023-07-27T02:34:49.629Z,52.96
2023-07-27T02:37:25.771Z,52.68
2023-07-27T02:40:23.188Z,52.88
2023-07-27T02:42:57.289Z,53.31
2023-07-27T02:45:26.385Z,53.63
2023-07-27T02:48:03.830Z,53.82
2023-07-27T02:50:33.450Z,53.71
2023-07-27T02:53:09.291Z,53.17
2023-07-27T02:55:44.591Z,52.89
2023-07-27T02:58:13.656Z,52.92
2023-07-27T03:00:42.783Z,53.01
2023-07-27T03:03:15.286Z,53.17
2023-07-27T03:05:45.626Z,53.31
2023-07-27T03:08:19.209Z,53.53
2023-07-27T03:10:51.360Z,53.84
2023-07-27T03:13:48.833Z,54.01
2023-07-27T03:16:19.710Z,54.59
2023-07-27T03:18:52.068Z,54.74
2023-07-27T03:21:21.928Z,54.87
2023-07-27T03:23:51.511Z,54.73
2023-07-27T03:26:22.697Z,54.56
2023-07-27T03:28:51.474Z,54.65
2023-07-27T03:31:25.298Z,54.60
2023-07-27T03:33:56.959Z,54.84
2023-07-27T03:36:26.557Z,55.10
2023-07-27T03:38:57.719Z,55.04
2023-07-27T03:41:28.639Z,55.23
2023-07-27T03:43:58.022Z,55.22
2023-07-27T03:46:26.899Z,55.66
2023-07-27T03:48:57.702Z,55.49
2023-07-27T03:51:26.677Z,55.27
2023-07-27T03:54:00.187Z,54.65
2023-07-27T03:56:39.203Z,54.67
2023-07-27T03:59:08.373Z,54.53
2023-07-27T04:01:39.187Z,54.75
2023-07-27T04:04:13.760Z,54.93
2023-07-27T04:06:43.723Z,55.37
2023-07-27T04:09:13.636Z,55.73
2023-07-27T04:11:50.503Z,55.97
2023-07-27T04:14:33.525Z,56.47
2023-07-27T04:17:04.400Z,56.76
2023-07-27T04:19:37.446Z,56.79
2023-07-27T04:22:06.801Z,57.21
2023-07-27T04:24:36.800Z,57.12
2023-07-27T04:27:11.815Z,57.20
2023-07-27T04:29:41.756Z,57.24
2023-07-27T04:32:11.027Z,57.38
2023-07-27T04:34:43.242Z,57.36
2023-07-27T04:37:12.141Z,57.79
2023-07-27T04:39:42.910Z,57.94
2023-07-27T04:42:21.369Z,58.04
2023-07-27T04:44:52.304Z,58.17
2023-07-27T04:47:25.067Z,58.11
2023-07-27T04:49:56.464Z,58.04
2023-07-27T04:52:27.287Z,57.92
2023-07-27T04:54:56.084Z,57.40
2023-07-27T04:57:24.975Z,57.23
2023-07-27T04:59:53.898Z,57.09
2023-07-27T05:02:22.836Z,57.07
2023-07-27T05:04:52.869Z,57.20
2023-07-27T05:07:23.648Z,57.23
2023-07-27T05:09:52.425Z,57.39
2023-07-27T05:12:21.957Z,57.46
2023-07-27T05:14:52.187Z,57.42
2023-07-27T05:17:21.034Z,57.54
2023-07-27T05:19:50.100Z,57.34
2023-07-27T05:22:18.920Z,57.04
2023-07-27T05:24:49.358Z,56.90
2023-07-27T05:27:18.104Z,56.68
2023-07-27T05:29:46.919Z,56.51
2023-07-27T05:32:15.824Z,56.39
2023-07-27T05:34:45.593Z,56.41
2023-07-27T05:37:15.043Z,56.34
2023-07-27T05:39:43.973Z,56.28
2023-07-27T05:42:14.227Z,55.98
2023-07-27T05:44:43.983Z,55.96
2023-07-27T05:47:12.946Z,55.12
2023-07-27T05:49:41.886Z,54.37
2023-07-27T05:52:10.797Z,54.15
2023-07-27T05:54:39.612Z,54.01
2023-07-27T05:57:08.380Z,53.79
2023-07-27T05:59:40.188Z,53.64
2023-07-27T06:02:10.684Z,53.93
2023-07-27T06:04:39.514Z,53.68
2023-07-27T06:07:08.706Z,52.89
2023-07-27T06:09:38.251Z,52.38
2023-07-27T06:12:12.862Z,51.96
2023-07-27T06:14:43.265Z,50.33
2023-07-27T06:17:12.027Z,48.82
2023-07-27T06:19:40.659Z,47.41
2023-07-27T06:22:09.386Z,45.51
2023-07-27T06:24:38.227Z,44.31
2023-07-27T06:27:08.246Z,42.09
2023-07-27T06:29:37.082Z,41.60
2023-07-27T06:32:08.306Z,40.47
2023-07-27T06:34:37.093Z,38.50
2023-07-27T06:37:07.175Z,37.59
2023-07-27T06:39:36.024Z,36.56
2023-07-27T06:42:04.994Z,36.42
2023-07-27T06:44:35.743Z,35.78
2023-07-27T06:47:06.049Z,34.93
2023-07-27T06:49:37.488Z,34.04
2023-07-27T06:52:10.474Z,33.64
2023-07-27T06:54:41.083Z,33.19
2023-07-27T06:57:11.594Z,32.84
2023-07-27T06:59:40.361Z,32.31
2023-07-27T07:02:09.426Z,31.76
2023-07-27T07:04:40.666Z,31.84
2023-07-27T07:07:10.183Z,31.04
2023-07-27T07:09:38.950Z,30.01
2023-07-27T07:12:08.306Z,29.32
2023-07-27T07:14:37.195Z,29.59
2023-07-27T07:17:07.332Z,28.41
2023-07-27T07:19:36.084Z,28.95
2023-07-27T07:22:07.278Z,28.89
2023-07-27T07:24:36.102Z,28.73
2023-07-27T07:27:05.237Z,28.45
2023-07-27T07:29:34.050Z,28.33
2023-07-27T07:32:02.853Z,27.72
2023-07-27T07:34:34.982Z,27.05
2023-07-27T07:37:05.758Z,26.54
2023-07-27T07:39:34.544Z,26.63
2023-07-27T07:42:03.376Z,26.25
2023-07-27T07:44:32.230Z,26.25
2023-07-27T07:47:01.013Z,26.47
2023-07-27T07:49:29.813Z,26.55
2023-07-27T07:51:58.590Z,27.01
2023-07-27T07:54:30.234Z,26.60
2023-07-27T07:56:59.088Z,26.30
2023-07-27T07:59:27.852Z,26.21
2023-07-27T08:01:56.782Z,26.24
2023-07-27T08:04:25.582Z,26.19
2023-07-27T08:06:54.349Z,26.59
2023-07-27T08:09:23.137Z,26.39
2023-07-27T08:11:53.822Z,25.82
2023-07-27T08:14:22.949Z,26.13
2023-07-27T08:16:51.791Z,26.18
2023-07-27T08:19:20.740Z,26.35
2023-07-27T08:21:49.503Z,26.02
2023-07-27T08:24:18.957Z,26.60
2023-07-27T08:26:48.612Z,26.91
2023-07-27T08:29:18.861Z,26.38
2023-07-27T08:31:47.692Z,26.64
2023-07-27T08:34:16.481Z,26.85
2023-07-27T08:36:48.651Z,26.88
2023-07-27T08:39:17.783Z,26.87
2023-07-27T08:41:46.759Z,27.26
2023-07-27T08:44:16.829Z,26.97
2023-07-27T08:46:48.296Z,26.72
2023-07-27T08:49:17.749Z,27.14
2023-07-27T08:51:47.153Z,27.37
2023-07-27T08:54:16.135Z,27.59
2023-07-27T08:56:44.892Z,27.37
2023-07-27T08:59:14.120Z,27.62
2023-07-27T09:01:43.025Z,28.17
2023-07-27T09:04:14.234Z,27.59
2023-07-27T09:06:46.182Z,27.58
2023-07-27T09:09:19.643Z,27.73
2023-07-27T09:11:48.621Z,28.22
2023-07-27T09:14:19.910Z,28.48
2023-07-27T09:16:50.493Z,27.72
2023-07-27T09:19:21.453Z,28.06
2023-07-27T09:21:51.719Z,28.15
2023-07-27T09:24:20.660Z,28.17
2023-07-27T09:26:51.047Z,27.69
2023-07-27T09:29:21.905Z,27.98
2023-07-27T09:31:52.020Z,27.97
2023-07-27T09:34:23.300Z,28.15
2023-07-27T09:36:53.700Z,27.44
2023-07-27T09:39:22.777Z,27.75
2023-07-27T09:41:53.351Z,26.95
2023-07-27T09:44:22.847Z,27.32
2023-07-27T09:46:51.659Z,26.82
2023-07-27T09:49:22.477Z,27.08
2023-07-27T09:51:53.104Z,26.66
2023-07-27T09:54:23.696Z,27.25
2023-07-27T09:56:53.640Z,26.47
2023-07-27T09:59:25.685Z,26.13
2023-07-27T10:01:57.826Z,25.69
2023-07-27T10:04:28.119Z,25.96
2023-07-27T10:06:59.943Z,26.63
2023-07-27T10:09:28.646Z,26.99
2023-07-27T10:11:58.396Z,26.91
2023-07-27T10:14:28.549Z,26.64
2023-07-27T10:17:02.320Z,26.13
2023-07-27T10:19:49.306Z,25.57
2023-07-27T10:22:21.165Z,26.20
2023-07-27T10:24:54.648Z,26.38
2023-07-27T10:27:26.156Z,26.21
2023-07-27T10:30:17.822Z,26.42
2023-07-27T10:33:17.028Z,26.81
2023-07-27T10:36:06.309Z,26.24
2023-07-27T10:38:35.519Z,26.23
2023-07-27T10:41:17.169Z,25.63
2023-07-27T10:44:19.617Z,25.92
2023-07-27T10:46:57.777Z,25.98
2023-07-27T10:49:28.089Z,26.02
2023-07-27T10:52:00.332Z,26.08
2023-07-27T10:54:29.629Z,25.90
2023-07-27T10:56:59.299Z,25.94
2023-07-27T10:59:30.877Z,26.04
2023-07-27T11:01:59.919Z,26.22
2023-07-27T11:04:29.141Z,26.30
2023-07-27T11:06:59.375Z,26.44
2023-07-27T11:09:34.303Z,26.19
2023-07-27T11:12:03.539Z,26.37
2023-07-27T11:14:32.642Z,26.17
2023-07-27T11:17:01.724Z,26.35
2023-07-27T11:19:30.566Z,25.92
2023-07-27T11:22:01.740Z,26.56
2023-07-27T11:24:31.945Z,26.55
2023-07-27T11:27:01.736Z,26.53
2023-07-27T11:29:30.637Z,26.55
2023-07-27T11:32:01.336Z,26.76
2023-07-27T11:34:32.268Z,26.64
2023-07-27T11:37:03.742Z,26.42
2023-07-27T11:39:33.756Z,26.86
2023-07-27T11:42:11.824Z,27.08
2023-07-27T11:44:41.612Z,26.83
2023-07-27T11:47:10.532Z,27.08
2023-07-27T11:49:40.021Z,27.27
2023-07-27T11:52:11.360Z,27.50
2023-07-27T11:54:42.574Z,27.69
2023-07-27T11:57:17.275Z,27.76
2023-07-27T12:00:01.164Z,27.64
2023-07-27T12:02:34.629Z,27.30
2023-07-27T12:05:03.942Z,27.36
2023-07-27T12:12:49.916Z,27.83
2023-07-27T12:15:30.404Z,27.76
2023-07-27T12:18:00.518Z,27.97
2023-07-27T12:30:44.097Z,28.68
2023-07-27T12:33:13.413Z,29.06
2023-07-27T12:35:42.401Z,28.59
2023-07-27T12:43:17.197Z,29.31
2023-07-27T12:45:46.040Z,29.69
2023-07-27T12:48:14.950Z,30.05
2023-07-27T12:50:43.737Z,30.41
2023-07-27T12:53:15.046Z,30.57
2023-07-27T12:55:44.015Z,30.04
2023-07-27T12:58:12.855Z,29.97
2023-07-27T13:00:41.821Z,29.56
2023-07-27T13:03:12.677Z,30.40
2023-07-27T13:05:41.689Z,30.32
2023-07-27T13:08:10.453Z,30.51
2023-07-27T13:10:40.862Z,30.70
2023-07-27T13:13:09.730Z,30.99
2023-07-27T13:15:38.878Z,30.70
2023-07-27T13:18:07.904Z,30.68
2023-07-27T13:20:37.722Z,31.03
2023-07-27T13:23:06.884Z,31.83
2023-07-27T13:25:38.529Z,31.67
2023-07-27T13:28:08.986Z,32.00
2023-07-27T13:30:39.075Z,31.81
2023-07-27T13:33:08.106Z,31.94
2023-07-27T13:35:39.194Z,32.07
2023-07-27T13:38:08.155Z,31.92
2023-07-27T13:40:37.079Z,31.97
2023-07-27T13:43:05.908Z,32.10
2023-07-27T13:45:36.127Z,32.08
2023-07-27T13:48:09.810Z,31.51
2023-07-27T13:50:39.449Z,32.12
2023-07-27T13:53:11.394Z,32.07
2023-07-27T13:55:40.332Z,32.40
2023-07-27T13:58:09.332Z,32.09
2023-07-27T14:00:39.868Z,32.69
2023-07-27T14:03:08.859Z,33.23
2023-07-27T14:05:38.136Z,33.31
2023-07-27T14:08:07.549Z,33.74
2023-07-27T14:10:36.464Z,33.26
2023-07-27T14:13:06.103Z,33.72
2023-07-27T14:15:35.044Z,33.30
2023-07-27T14:18:05.591Z,33.56
2023-07-27T14:20:35.728Z,33.29
2023-07-27T14:23:04.789Z,32.94
2023-07-27T14:25:34.820Z,33.44
2023-07-27T14:28:03.815Z,32.89
2023-07-27T14:30:32.792Z,32.72
2023-07-27T14:33:01.656Z,32.43
2023-07-27T14:35:31.938Z,33.02
2023-07-27T14:38:00.839Z,32.81
2023-07-27T14:43:01.392Z,33.35
2023-07-27T14:45:30.870Z,32.36
2023-07-27T14:47:59.837Z,32.97
2023-07-27T14:53:03.119Z,33.26
2023-07-27T14:55:31.954Z,33.71
2023-07-27T14:58:00.872Z,32.97
2023-07-27T15:05:33.652Z,34.23
2023-07-27T15:08:05.037Z,33.91
2023-07-27T15:10:37.896Z,33.99
2023-07-27T15:13:08.209Z,33.76
2023-07-27T15:15:38.068Z,34.22
2023-07-27T15:18:08.948Z,34.44
2023-07-27T15:20:42.104Z,34.39
2023-07-27T15:23:13.549Z,34.46
2023-07-27T15:25:42.493Z,34.64
2023-07-27T15:28:11.313Z,35.16
2023-07-27T15:30:40.412Z,34.88
2023-07-27T15:33:09.393Z,35.67
2023-07-27T15:35:39.550Z,35.71
2023-07-27T15:38:08.477Z,36.58
2023-07-27T15:40:38.821Z,36.25
2023-07-27T15:43:08.229Z,36.59
2023-07-27T15:45:37.102Z,36.68
2023-07-27T15:48:07.750Z,36.47
2023-07-27T15:50:36.779Z,37.21
2023-07-27T15:53:06.595Z,36.69
2023-07-27T15:55:38.757Z,37.17
2023-07-27T15:58:08.960Z,37.15
2023-07-27T16:00:40.784Z,36.93
2023-07-27T16:03:12.718Z,37.53
2023-07-27T16:05:41.656Z,38.46
2023-07-27T16:08:10.382Z,38.42
2023-07-27T16:10:43.858Z,38.28
2023-07-27T16:13:13.206Z,38.34
2023-07-27T16:15:42.041Z,38.56
2023-07-27T16:18:12.615Z,38.89
2023-07-27T16:20:44.414Z,39.23
2023-07-27T16:23:14.793Z,39.50
2023-07-27T16:25:45.787Z,39.50
2023-07-27T16:28:15.679Z,39.65
2023-07-27T16:30:45.289Z,40.24
2023-07-27T16:33:15.204Z,40.15
2023-07-27T16:35:44.112Z,40.43
2023-07-27T16:38:12.915Z,40.70
2023-07-27T16:40:42.064Z,40.69
2023-07-27T16:43:12.315Z,40.74
2023-07-27T16:45:41.197Z,41.03
2023-07-27T16:48:10.305Z,41.33
2023-07-27T16:50:39.146Z,41.71
2023-07-27T16:53:08.018Z,41.88
2023-07-27T16:55:38.193Z,42.22
2023-07-27T16:58:07.157Z,42.64
2023-07-27T17:00:38.641Z,42.85
2023-07-27T17:03:07.786Z,43.27
2023-07-27T17:05:40.314Z,43.75
2023-07-27T17:08:10.887Z,44.20
2023-07-27T17:10:39.867Z,44.45
2023-07-27T17:13:08.800Z,44.84
2023-07-27T17:15:39.761Z,45.25
2023-07-27T17:18:08.708Z,45.64
2023-07-27T17:20:37.867Z,45.95
2023-07-27T17:23:06.833Z,46.45
2023-07-27T17:25:35.833Z,46.44
2023-07-27T17:28:04.739Z,46.49
2023-07-27T17:30:33.703Z,46.79
2023-07-27T17:33:04.123Z,47.45
2023-07-27T17:35:33.056Z,47.08
2023-07-27T17:38:01.950Z,47.45
2023-07-27T17:40:30.790Z,47.91
2023-07-27T17:42:59.662Z,47.51
2023-07-27T17:45:28.441Z,47.68
2023-07-27T17:47:57.288Z,47.87
2023-07-27T17:50:27.648Z,48.67
2023-07-27T17:52:57.505Z,48.55
2023-07-27T17:55:26.426Z,48.92
2023-07-27T17:57:56.050Z,49.10
2023-07-27T18:00:25.045Z,49.48
2023-07-27T18:02:55.137Z,49.95
2023-07-27T18:05:24.068Z,50.10
2023-07-27T18:07:54.412Z,50.28
2023-07-27T18:10:23.311Z,50.78
2023-07-27T18:12:52.134Z,51.34
2023-07-27T18:15:21.103Z,51.26
2023-07-27T18:17:50.008Z,51.25
2023-07-27T18:20:19.026Z,52.15
2023-07-27T18:22:47.925Z,52.23
2023-07-27T18:25:18.296Z,51.93
2023-07-27T18:27:47.212Z,51.96
2023-07-27T18:30:16.282Z,52.38
2023-07-27T18:32:45.275Z,52.37
2023-07-27T18:35:16.220Z,52.33
2023-07-27T18:37:45.310Z,52.98
2023-07-27T18:40:15.378Z,53.05
2023-07-27T18:42:46.790Z,53.27
2023-07-27T18:45:15.848Z,53.23
2023-07-27T18:47:45.260Z,54.06
2023-07-27T18:50:14.064Z,54.19
2023-07-27T18:52:43.984Z,54.18
2023-07-27T18:55:12.808Z,54.18
2023-07-27T18:57:41.678Z,54.52
2023-07-27T19:00:13.752Z,54.48
2023-07-27T19:02:42.753Z,54.60
2023-07-27T19:05:11.605Z,55.44
2023-07-27T19:07:40.405Z,55.20
2023-07-27T19:10:10.889Z,55.87
2023-07-27T19:12:39.820Z,55.75
2023-07-27T19:15:10.274Z,56.04
2023-07-27T19:17:40.586Z,55.53
2023-07-27T19:20:11.198Z,55.62
2023-07-27T19:22:40.068Z,55.63
2023-07-27T19:25:10.678Z,55.70
2023-07-27T19:27:39.680Z,55.73
2023-07-27T19:30:09.735Z,55.92
2023-07-27T19:32:40.746Z,56.01
2023-07-27T19:35:10.505Z,56.29
2023-07-27T19:37:39.338Z,56.70
2023-07-27T19:40:10.111Z,56.31
2023-07-27T19:42:39.004Z,56.74
2023-07-27T19:45:08.951Z,56.50
2023-07-27T19:47:37.821Z,56.67
2023-07-27T19:50:18.558Z,56.67
2023-07-27T19:52:51.382Z,57.15
2023-07-27T19:55:21.349Z,56.93
2023-07-27T19:57:51.201Z,57.11
2023-07-27T20:00:20.312Z,57.44
2023-07-27T20:02:49.793Z,56.77
2023-07-27T20:05:20.119Z,57.11
2023-07-27T20:07:49.266Z,56.93
2023-07-27T20:10:18.130Z,57.25
2023-07-27T20:12:46.886Z,57.37
2023-07-27T20:15:15.712Z,57.08
2023-07-27T20:17:45.662Z,57.54
2023-07-27T20:20:15.073Z,57.68
2023-07-27T20:22:45.323Z,57.25
2023-07-27T20:25:14.672Z,57.63
2023-07-27T20:27:43.654Z,57.68
2023-07-27T20:30:13.039Z,57.69
2023-07-27T20:32:43.595Z,58.03
2023-07-27T20:35:12.977Z,58.17
2023-07-27T20:37:41.818Z,58.10
2023-07-27T20:40:13.254Z,58.33
2023-07-27T20:42:42.135Z,58.05
2023-07-27T20:45:11.577Z,58.15
2023-07-27T20:47:40.496Z,58.40
2023-07-27T20:50:12.014Z,58.13
2023-07-27T20:52:40.892Z,58.52
2023-07-27T20:55:11.813Z,58.50
2023-07-27T20:57:40.665Z,58.48
2023-07-27T21:00:10.525Z,58.74
2023-07-27T21:02:39.489Z,58.85
2023-07-27T21:05:10.367Z,59.29
2023-07-27T21:07:39.282Z,59.40
2023-07-27T21:10:09.700Z,59.21
2023-07-27T21:12:39.993Z,59.02
2023-07-27T21:15:09.791Z,58.99
2023-07-27T21:17:38.732Z,58.93
2023-07-27T21:20:10.596Z,58.57
2023-07-27T21:22:39.447Z,58.64
2023-07-27T21:25:08.808Z,58.16
2023-07-27T21:27:37.616Z,58.69
2023-07-27T21:30:09.316Z,58.56
2023-07-27T21:32:38.234Z,58.81
2023-07-27T21:35:08.051Z,58.70
2023-07-27T21:37:37.147Z,59.15
2023-07-27T21:40:13.567Z,59.08
2023-07-27T21:42:43.157Z,59.15
2023-07-27T21:45:13.585Z,59.34
2023-07-27T21:47:42.557Z,59.29
2023-07-27T21:50:12.299Z,59.45
2023-07-27T21:52:41.152Z,59.45
2023-07-27T21:55:10.877Z,59.30
2023-07-27T21:57:39.656Z,59.19
2023-07-27T22:00:10.454Z,59.17
2023-07-27T22:02:40.717Z,59.17
2023-07-27T22:05:09.753Z,59.55
2023-07-27T22:07:38.686Z,59.79
2023-07-27T22:10:08.807Z,60.27
2023-07-27T22:12:39.103Z,60.76
2023-07-27T22:15:09.061Z,60.84
2023-07-27T22:17:37.887Z,61.46
2023-07-27T22:20:10.669Z,61.65
2023-07-27T22:22:39.536Z,62.13
2023-07-27T22:25:09.788Z,62.24
2023-07-27T22:27:38.779Z,62.37
2023-07-27T22:30:08.740Z,62.17
2023-07-27T22:32:37.792Z,62.40
2023-07-27T22:35:08.481Z,62.73
2023-07-27T22:37:38.286Z,62.88
2023-07-27T22:40:08.205Z,63.01
2023-07-27T22:42:38.187Z,63.13
2023-07-27T22:45:07.726Z,62.97
2023-07-27T22:47:36.706Z,63.15
2023-07-27T22:50:08.013Z,63.34
2023-07-27T22:52:38.387Z,63.53
2023-07-27T22:55:08.164Z,63.63
2023-07-27T22:57:40.751Z,63.58
2023-07-27T23:00:10.971Z,63.92
2023-07-27T23:02:39.903Z,64.05
2023-07-27T23:05:11.203Z,64.13
2023-07-27T23:07:41.680Z,64.40
2023-07-27T23:10:10.978Z,64.69
2023-07-27T23:12:39.760Z,64.58
2023-07-27T23:15:09.283Z,64.62
2023-07-27T23:17:38.256Z,64.53
2023-07-27T23:20:09.189Z,64.84
2023-07-27T23:22:38.102Z,64.84
2023-07-27T23:25:09.172Z,64.85
2023-07-27T23:27:38.632Z,64.98
2023-07-27T23:30:08.457Z,64.80
2023-07-27T23:32:37.682Z,64.99
2023-07-27T23:35:07.296Z,64.98
2023-07-27T23:37:36.044Z,65.28
2023-07-27T23:40:08.458Z,65.45
2023-07-27T23:42:38.208Z,65.60
2023-07-27T23:45:08.365Z,65.71
2023-07-27T23:47:38.323Z,66.27
2023-07-27T23:50:07.995Z,66.37
2023-07-27T23:52:36.881Z,67.02
2023-07-27T23:55:07.805Z,67.78
2023-07-27T23:57:36.654Z,68.60
